createdAt,value
2022-10-23T00:02:02.585Z,75.65
2022-10-23T00:07:27.746Z,82.20
2022-10-23T00:12:51.994Z,72.65
2022-10-23T00:18:15.622Z,65.40
2022-10-23T00:23:41.571Z,67.32
2022-10-23T00:29:05.289Z,95.18
2022-10-23T00:34:28.867Z,85.10
2022-10-23T00:39:54.817Z,74.68
2022-10-23T00:45:23.313Z,84.88
2022-10-23T00:50:48.785Z,71.40
2022-10-23T00:56:13.767Z,57.28
2022-10-23T01:01:37.643Z,65.55
2022-10-23T01:07:08.169Z,59.35
2022-10-23T01:12:38.307Z,65.83
2022-10-23T01:18:08.747Z,60.63
2022-10-23T01:23:58.628Z,54.78
2022-10-23T01:29:29.166Z,54.28
2022-10-23T01:34:58.442Z,48.40
2022-10-23T01:40:25.618Z,41.45
2022-10-23T01:45:54.300Z,40.92
2022-10-23T01:51:21.945Z,43.35
2022-10-23T01:56:49.678Z,38.33
2022-10-23T02:02:20.097Z,37.22
2022-10-23T02:07:44.331Z,36.67
2022-10-23T02:13:13.201Z,38.45
2022-10-23T02:18:46.100Z,39.42
2022-10-23T02:24:12.766Z,34.92
2022-10-23T02:29:45.324Z,32.75
2022-10-23T02:35:10.851Z,32.45
2022-10-23T02:40:40.349Z,33.63
2022-10-23T02:46:14.803Z,29.70
2022-10-23T02:51:47.650Z,35.63
2022-10-23T02:57:22.925Z,37.90
2022-10-23T03:02:51.132Z,40.47
2022-10-23T03:08:16.425Z,53.40
2022-10-23T03:13:39.988Z,54.22
2022-10-23T03:19:03.654Z,57.70
2022-10-23T03:24:28.720Z,50.80
2022-10-23T03:29:53.411Z,48.50
2022-10-23T03:35:18.108Z,46.67
2022-10-23T03:40:43.634Z,37.58
2022-10-23T03:46:12.649Z,40.67
2022-10-23T03:51:36.307Z,31.10
2022-10-23T03:57:02.705Z,31.98
2022-10-23T04:02:26.775Z,37.28
2022-10-23T04:07:50.429Z,34.38
2022-10-23T04:13:15.465Z,44.15
2022-10-23T04:18:41.604Z,55.08
2022-10-23T04:24:07.282Z,40.90
2022-10-23T04:29:32.604Z,39.30
2022-10-23T04:34:56.301Z,37.35
2022-10-23T04:40:20.030Z,31.95
2022-10-23T04:45:45.686Z,30.00
2022-10-23T04:51:09.470Z,33.30
2022-10-23T04:56:57.748Z,29.45
2022-10-23T05:02:25.169Z,31.92
2022-10-23T05:07:49.832Z,40.63
2022-10-23T05:13:39.460Z,44.10
2022-10-23T05:19:04.884Z,44.40
2022-10-23T05:24:28.537Z,41.50
2022-10-23T05:29:55.969Z,42.70
2022-10-23T05:35:26.761Z,42.53
2022-10-23T05:40:52.417Z,48.60
2022-10-23T05:46:24.365Z,45.25
2022-10-23T05:52:04.979Z,49.38
2022-10-23T05:57:37.160Z,57.85
2022-10-23T06:03:05.679Z,48.13
2022-10-23T06:08:36.595Z,44.47
2022-10-23T06:14:01.048Z,46.88
2022-10-23T06:19:26.447Z,41.35
2022-10-23T06:24:53.181Z,46.97
2022-10-23T06:30:21.392Z,36.60
2022-10-23T06:35:51.066Z,43.60
2022-10-23T06:41:16.743Z,43.75
2022-10-23T06:46:47.046Z,41.17
2022-10-23T06:52:46.463Z,42.13
2022-10-23T06:58:12.885Z,46.03
2022-10-23T07:03:54.701Z,56.38
2022-10-23T07:09:24.296Z,58.97
2022-10-23T07:15:09.424Z,54.80
2022-10-23T07:20:33.405Z,49.70
2022-10-23T07:26:04.691Z,39.40
2022-10-23T07:37:45.697Z,27.63
2022-10-23T07:43:21.046Z,22.63
2022-10-23T07:48:44.957Z,22.25
2022-10-23T07:54:09.270Z,18.38
2022-10-23T07:59:53.057Z,17.60
2022-10-23T08:05:20.201Z,16.30
2022-10-23T08:10:51.518Z,17.75
2022-10-23T08:16:23.663Z,17.80
2022-10-23T08:22:16.101Z,17.70
2022-10-23T08:27:41.009Z,16.27
2022-10-23T08:33:08.189Z,16.48
2022-10-23T08:38:33.796Z,14.30
2022-10-23T08:44:04.143Z,11.35
2022-10-23T08:49:41.992Z,17.17
2022-10-23T08:55:16.564Z,14.82
2022-10-23T09:00:41.308Z,8.88
2022-10-23T09:06:14.465Z,12.18
2022-10-23T09:11:47.092Z,11.60
2022-10-23T09:17:22.352Z,12.88
2022-10-23T09:22:48.790Z,14.25
2022-10-23T09:28:19.871Z,14.57
2022-10-23T09:33:55.267Z,18.90
2022-10-23T09:39:30.243Z,16.10
2022-10-23T09:44:55.929Z,12.32
2022-10-23T09:50:22.124Z,10.38
2022-10-23T09:55:54.933Z,9.57
2022-10-23T10:01:25.753Z,5.90
2022-10-23T10:06:59.479Z,7.50
2022-10-23T10:12:41.198Z,5.50
2022-10-23T10:18:15.842Z,5.85
2022-10-23T10:23:48.304Z,6.68
2022-10-23T10:29:29.971Z,7.40
2022-10-23T10:35:01.775Z,5.93
2022-10-23T10:40:31.745Z,7.78
2022-10-23T10:46:01.785Z,8.73
2022-10-23T10:51:31.275Z,16.40
2022-10-23T10:56:58.434Z,21.58
2022-10-23T11:02:29.647Z,33.05
2022-10-23T11:07:59.971Z,40.00
2022-10-23T11:13:28.068Z,46.10
2022-10-23T11:19:04.122Z,48.28
2022-10-23T11:25:07.974Z,46.63
2022-10-23T11:30:40.700Z,40.28
2022-10-23T11:36:15.535Z,35.55
2022-10-23T11:41:49.014Z,28.45
2022-10-23T11:47:39.225Z,21.40
2022-10-23T11:53:14.691Z,9.85
2022-10-23T11:58:44.449Z,8.73
2022-10-23T12:04:22.801Z,9.25
2022-10-23T12:09:54.993Z,7.55
2022-10-23T12:15:23.187Z,8.05
2022-10-23T12:20:52.333Z,8.68
2022-10-23T12:26:31.779Z,9.48
2022-10-23T12:32:03.847Z,10.13
2022-10-23T12:37:44.809Z,11.13
2022-10-23T12:43:25.962Z,13.15
2022-10-23T12:48:50.470Z,14.02
2022-10-23T12:54:18.795Z,8.77
2022-10-23T12:59:43.975Z,8.02
2022-10-23T13:05:11.468Z,10.32
2022-10-23T13:10:35.166Z,13.43
2022-10-23T13:16:15.127Z,12.45
2022-10-23T13:21:38.818Z,8.13
2022-10-23T13:27:02.440Z,8.27
2022-10-23T13:32:31.150Z,13.07
2022-10-23T13:37:54.799Z,9.90
2022-10-23T13:43:20.314Z,9.75
2022-10-23T13:48:45.650Z,12.27
2022-10-23T13:54:15.249Z,12.43
2022-10-23T13:59:39.014Z,11.50
2022-10-23T14:05:04.120Z,11.25
2022-10-23T14:10:27.924Z,10.77
2022-10-23T14:15:54.620Z,12.13
2022-10-23T14:21:21.230Z,19.27
2022-10-23T14:26:44.837Z,11.40
2022-10-23T14:32:14.849Z,15.10
2022-10-23T14:37:40.593Z,14.43
2022-10-23T14:43:04.291Z,17.48
2022-10-23T14:48:28.453Z,11.63
2022-10-23T14:53:59.530Z,15.75
2022-10-23T14:59:23.306Z,13.43
2022-10-23T15:04:48.541Z,14.82
2022-10-23T15:10:14.309Z,13.85
2022-10-23T15:15:37.990Z,17.85
2022-10-23T15:21:01.882Z,11.15
2022-10-23T15:26:27.103Z,10.73
2022-10-23T15:31:58.211Z,10.75
2022-10-23T15:37:22.392Z,10.32
2022-10-23T15:42:51.676Z,12.45
2022-10-23T15:48:16.077Z,14.38
2022-10-23T15:53:39.673Z,13.00
2022-10-23T15:59:05.033Z,14.80
2022-10-23T16:04:33.335Z,14.57
2022-10-23T16:09:58.427Z,12.43
2022-10-23T16:15:23.408Z,13.43
2022-10-23T16:20:47.152Z,12.82
2022-10-23T16:26:11.072Z,12.93
2022-10-23T16:31:36.589Z,13.18
2022-10-23T16:37:00.220Z,11.38
2022-10-23T16:42:43.780Z,14.23
2022-10-23T16:48:15.976Z,10.93
2022-10-23T16:53:42.668Z,10.30
2022-10-23T16:59:12.098Z,11.77
2022-10-23T17:04:39.224Z,8.32
2022-10-23T17:10:03.226Z,10.73
2022-10-23T17:15:26.835Z,12.23
2022-10-23T17:20:57.831Z,10.73
2022-10-23T17:26:24.620Z,9.43
2022-10-23T17:31:49.994Z,9.10
2022-10-23T17:37:15.035Z,10.05
2022-10-23T17:42:39.139Z,8.30
2022-10-23T17:48:02.745Z,6.93
2022-10-23T17:53:29.703Z,10.15
2022-10-23T17:58:55.714Z,10.25
2022-10-23T18:04:26.057Z,7.45
2022-10-23T18:09:51.619Z,9.40
2022-10-23T18:15:15.783Z,8.68
2022-10-23T18:20:42.590Z,9.40
2022-10-23T18:26:15.929Z,8.85
2022-10-23T18:31:39.865Z,9.07
2022-10-23T18:37:03.431Z,7.95
2022-10-23T18:42:28.431Z,7.70
2022-10-23T18:47:52.172Z,9.45
2022-10-23T18:53:15.799Z,10.68
2022-10-23T18:58:40.761Z,11.00
2022-10-23T19:04:07.021Z,8.43
2022-10-23T19:09:31.354Z,10.68
2022-10-23T19:14:56.278Z,8.65
2022-10-23T19:20:21.594Z,7.35
2022-10-23T19:25:47.849Z,8.48
2022-10-23T19:31:13.613Z,6.50
2022-10-23T19:36:37.226Z,8.10
2022-10-23T19:42:00.999Z,11.40
2022-10-23T19:47:26.025Z,10.52
2022-10-23T19:52:49.902Z,12.73
2022-10-23T19:58:13.492Z,14.13
2022-10-23T20:03:42.464Z,14.68
2022-10-23T20:09:09.829Z,13.75
2022-10-23T20:14:33.550Z,18.35
2022-10-23T20:19:58.530Z,17.13
2022-10-23T20:25:22.366Z,20.77
2022-10-23T20:30:46.533Z,23.35
2022-10-23T20:36:23.737Z,22.50
2022-10-23T20:41:48.500Z,23.42
2022-10-23T20:47:12.078Z,24.05
2022-10-23T20:52:37.050Z,24.63
2022-10-23T20:58:00.650Z,20.02
2022-10-23T21:03:27.071Z,28.15
2022-10-23T21:08:55.978Z,22.17
2022-10-23T21:14:19.627Z,23.55
2022-10-23T21:19:43.205Z,18.35
2022-10-23T21:25:09.952Z,20.55
2022-10-23T21:30:34.221Z,18.75
2022-10-23T21:36:04.832Z,23.27
2022-10-23T21:41:38.104Z,16.30
2022-10-23T21:47:01.756Z,17.73
2022-10-23T21:52:25.330Z,17.73
2022-10-23T21:57:50.263Z,20.08
2022-10-23T22:03:13.880Z,16.05
2022-10-23T22:08:37.480Z,14.07
2022-10-23T22:14:02.621Z,14.25
2022-10-23T22:19:26.556Z,16.25
2022-10-23T22:24:50.271Z,20.42
2022-10-23T22:30:15.384Z,15.63
2022-10-23T22:35:38.983Z,16.52
2022-10-23T22:41:02.916Z,20.27
2022-10-23T22:46:29.481Z,13.02
2022-10-23T22:51:53.027Z,14.10
2022-10-23T22:57:16.687Z,18.05
2022-10-23T23:02:41.635Z,15.93
2022-10-23T23:08:05.393Z,18.77
2022-10-23T23:13:29.218Z,15.88
2022-10-23T23:18:54.187Z,18.80
2022-10-23T23:24:17.797Z,18.02
2022-10-23T23:29:41.385Z,19.08
2022-10-23T23:35:07.008Z,17.15
2022-10-23T23:40:30.692Z,17.80
2022-10-23T23:45:54.226Z,18.70
2022-10-23T23:51:22.189Z,19.40
2022-10-23T23:56:45.772Z,18.33
